Aviation Digital Data Service (ADDS)

Output produced by METARs form (1755 UTC 12 December 2017)
found at http://aviationweather.gov/adds/metars/
 
KMSS 121734Z 1218/1318 05009KT 1 1/2SM -SN BR BKN015 OVC030 
     FM122100 VRB06KT 1 1/2SM -SN BR OVC010 
     FM130100 30006KT P6SM VCSH OVC010 
     FM130500 29010KT 1 1/2SM -SHSN BR OVC020 
     FM130900 29013G21KT 1 1/2SM -SHSN BR OVC020 
     FM131700 27018G29KT P6SM VCSH OVC025